EDMA

Augsburg Airport

Augsburg, Germany
METAR EDMA 211250Z 36005KT 330V030 4500 BR OVC011 M02/M04 Q1017
Observed Flight Rules
Feb-21 @ 12:50 UTC (32 minutes ago) Instrument Flight Rules
Wind Visibility Clouds Conditions
360° at 5 knots 4,506 meters
  • Overcast at 1,100' AGL
  • Mist
Temperatures Readings
Current -2°C / 28°F
Dewpoint -4°C / 25°F
Humidity 86%
Altimeter 30.03" Hg
Pressure 1017 hPa
Elevation 463
METAR EDMA 211250Z 36005KT 330V030 4500 BR OVC011 M02/M04 Q1017
Observed Flight Rules
Feb-21 @ 12:50 UTC
(32 minutes ago)
IFR
Wind Visibility
360° at 5 knots 4,506 meters
Clouds
  • Overcast at 1,100' AGL
Conditions
  • Mist
Temperature Dewpoint
-2°C / 28°F -4°C / 25°F
Humidity Altimeter Pressure
86% 30.03" Hg 1017 hPa